Time;durP1;ratioP1;P1;durP2;ratioP2;P2;SDS_P1;SDS_P2;PMS_P1;PMS_P2;Temp;Humidity;BMP_temperature;BMP_pressure;BME280_temperature;BME280_humidity;BME280_pressure;Samples;Min_cycle;Max_cycle;Signal;HPM_P1;HPM_P2
2023/01/05 00:01:34;;;;;;;9.67;3.20;;;12.90;88.00;;;15.52;61.38;100840.66;5024829;28;20571;-52
2023/01/05 00:04:02;;;;;;;12.10;3.43;;;12.90;88.30;;;15.50;61.50;100838.19;5014275;28;20191;-52
2023/01/05 00:06:30;;;;;;;11.03;3.10;;;12.90;88.50;;;15.51;61.24;100839.00;5014011;28;20195;-51
2023/01/05 00:08:59;;;;;;;14.30;3.40;;;12.90;88.60;;;15.53;61.74;100831.66;5030034;28;20222;-51
2023/01/05 00:22:41;;;;;;;10.77;3.40;;;12.80;87.60;;;15.53;60.79;100843.09;5014373;28;20593;-53
2023/01/05 00:25:12;;;;;;;10.73;3.37;;;12.80;87.60;;;15.56;60.81;100831.25;5014524;28;20279;-53
2023/01/05 00:27:41;;;;;;;10.40;3.07;;;12.90;87.60;;;15.59;60.53;100841.47;5018277;28;20180;-52
2023/01/05 00:30:10;;;;;;;12.63;2.73;;;12.80;87.50;;;15.57;60.51;100836.34;5013472;28;20298;-51
2023/01/05 00:32:37;;;;;;;7.60;2.20;;;12.80;87.50;;;15.57;60.47;100828.38;5013622;28;20215;-54
2023/01/05 00:35:05;;;;;;;7.87;2.43;;;12.80;87.40;;;15.57;60.34;100838.16;5014934;28;20199;-53
2023/01/05 00:37:34;;;;;;;6.07;2.60;;;12.80;87.40;;;15.57;60.44;100835.53;5013473;28;20195;-52
2023/01/05 00:40:01;;;;;;;9.37;3.00;;;12.80;87.50;;;15.57;60.75;100838.16;5013227;28;20214;-53
2023/01/05 00:42:29;;;;;;;5.87;2.73;;;12.80;87.20;;;15.57;60.25;100835.53;5013463;28;20358;-51
2023/01/05 00:44:56;;;;;;;7.47;2.80;;;12.80;87.30;;;15.59;60.39;100830.84;5013415;28;20203;-50
2023/01/05 00:47:23;;;;;;;8.97;3.20;;;12.80;87.10;;;15.60;60.22;100848.38;5013467;28;20195;-53
2023/01/05 00:49:50;;;;;;;8.87;2.73;;;12.80;87.00;;;15.59;59.96;100857.38;5031280;28;20219;-53
2023/01/05 00:52:17;;;;;;;6.63;2.20;;;12.80;87.60;;;15.60;59.76;100843.06;5013886;28;20215;-55
2023/01/05 00:54:44;;;;;;;7.07;2.40;;;12.80;87.00;;;15.59;60.01;100858.19;5013181;28;20199;-55
2023/01/05 00:57:12;;;;;;;6.67;1.90;;;12.80;87.00;;;15.63;60.25;100855.94;5013582;28;20195;-52
2023/01/05 00:59:41;;;;;;;7.00;1.77;;;12.80;87.30;;;15.62;60.20;100859.59;5019494;28;20229;-54
2023/01/05 01:02:09;;;;;;;7.10;2.77;;;12.80;87.50;;;15.62;59.90;100867.56;5033300;28;20542;-55
2023/01/05 01:04:36;;;;;;;7.97;2.60;;;12.80;87.70;;;15.58;60.60;100872.47;5033502;28;20200;-51
2023/01/05 01:07:04;;;;;;;8.00;2.23;;;12.80;88.00;;;15.56;60.63;100868.41;5030620;28;20722;-55
2023/01/05 01:09:32;;;;;;;5.77;2.30;;;12.80;88.10;;;15.54;61.10;100876.56;5036166;28;20636;-55
2023/01/05 01:11:59;;;;;;;8.80;2.50;;;12.80;88.40;;;15.53;60.96;100874.09;5036807;28;20209;-55
2023/01/05 01:14:26;;;;;;;4.87;2.00;;;12.80;88.60;;;15.51;61.15;100884.94;5036760;28;20663;-53
2023/01/05 01:16:54;;;;;;;8.30;2.50;;;12.80;88.50;;;15.51;60.94;100870.84;5036507;28;20194;-52
2023/01/05 01:19:24;;;;;;;6.63;2.90;;;12.80;88.40;;;15.52;61.00;100883.09;5036188;28;20223;-53
2023/01/05 01:21:52;;;;;;;7.83;2.20;;;12.80;88.30;;;15.51;61.02;100876.16;5037450;28;20521;-55
2023/01/05 01:24:22;;;;;;;11.23;2.97;;;12.80;88.40;;;15.53;60.94;100884.72;5028079;28;20253;-54
2023/01/05 01:26:51;;;;;;;9.77;3.13;;;12.80;88.30;;;15.54;61.00;100886.34;5016472;28;20229;-52
2023/01/05 01:29:18;;;;;;;6.33;2.10;;;12.80;88.40;;;15.57;61.02;100883.28;5016304;28;20216;-58
2023/01/05 01:31:48;;;;;;;10.73;2.47;;;12.80;88.30;;;15.55;60.75;100893.28;5016407;28;20759;-55
2023/01/05 01:34:17;;;;;;;8.20;2.63;;;12.70;88.00;;;15.53;60.79;100895.31;5016500;28;20191;-54
2023/01/05 01:36:45;;;;;;;6.93;2.13;;;12.70;88.30;;;15.50;60.80;100896.53;5016392;28;20297;-53
2023/01/05 01:39:13;;;;;;;5.67;2.00;;;12.70;88.40;;;15.50;61.10;100901.03;5016477;28;20234;-53
2023/01/05 01:41:40;;;;;;;8.33;2.13;;;12.70;88.30;;;15.49;60.91;100900.22;5017493;28;20203;-52
2023/01/05 01:44:50;;;;;;;5.80;2.20;;;12.70;88.30;;;15.41;60.90;100912.81;5016404;28;20241;-55
2023/01/05 01:47:31;;;;;;;3.73;1.27;;;12.70;88.30;;;15.42;61.09;100902.03;5016402;28;20209;-53
2023/01/05 01:50:05;;;;;;;4.33;1.93;;;12.70;88.10;;;15.45;60.91;100919.41;5035677;28;20215;-54
2023/01/05 01:52:34;;;;;;;4.83;1.90;;;12.70;88.00;;;15.47;61.19;100920.03;5035550;28;20226;-53
2023/01/05 01:55:04;;;;;;;4.73;2.00;;;12.70;88.10;;;15.49;60.39;100917.97;5035953;28;20190;-52
2023/01/05 01:57:33;;;;;;;6.20;2.27;;;12.70;88.00;;;15.48;60.84;100919.00;5028305;28;20595;-56
2023/01/05 02:00:05;;;;;;;5.03;1.60;;;12.70;88.00;;;15.49;60.58;100928.59;5025241;28;20235;-51
2023/01/05 02:02:32;;;;;;;5.57;1.73;;;12.70;87.90;;;15.49;60.43;100925.94;5036488;28;20187;-50
2023/01/05 02:05:09;;;;;;;4.83;1.93;;;12.70;87.90;;;15.49;60.62;100928.59;5026753;28;20249;-52
2023/01/05 02:07:43;;;;;;;7.10;2.27;;;12.70;87.60;;;15.48;60.25;100934.91;5021931;28;20190;-52
2023/01/05 02:10:12;;;;;;;6.37;1.60;;;12.70;87.80;;;15.47;60.65;100933.28;5037620;28;20272;-51
2023/01/05 02:13:09;;;;;;;7.90;2.00;;;12.70;87.50;;;15.48;60.35;100932.25;5039197;28;20217;-52
2023/01/05 02:15:56;;;;;;;5.73;1.83;;;12.70;87.50;;;15.46;60.50;100932.47;5016183;28;20202;-53
2023/01/05 02:18:45;;;;;;;6.00;2.37;;;12.70;87.40;;;15.45;60.38;100924.72;5015211;28;20206;-52
2023/01/05 02:21:30;;;;;;;4.27;1.70;;;12.70;87.20;;;15.47;60.17;100933.28;5015710;28;20627;-54
2023/01/05 02:24:36;;;;;;;6.47;2.60;;;12.70;87.10;;;15.46;60.12;100932.47;5015696;28;20201;-52
2023/01/05 02:27:35;;;;;;;3.97;1.50;;;12.70;86.90;;;15.44;60.17;100934.50;5015929;28;20180;-52
2023/01/05 02:30:50;;;;;;;3.83;1.53;;;12.70;86.70;;;15.44;59.77;100928.34;5015611;28;20218;-55
2023/01/05 02:33:31;;;;;;;5.00;2.07;;;12.70;87.10;;;15.47;59.83;100927.97;5015551;28;20552;-53
2023/01/05 02:36:13;;;;;;;5.73;1.77;;;12.70;86.40;;;15.50;59.83;100927.56;5015564;28;20187;-53
2023/01/05 02:38:49;;;;;;;6.40;2.07;;;12.70;86.00;;;15.52;59.30;100930.84;5015065;28;20203;-52
2023/01/05 02:41:30;;;;;;;5.47;1.53;;;12.70;86.20;;;15.54;59.55;100931.47;5030194;28;20193;-55
2023/01/05 02:44:00;;;;;;;2.50;1.40;;;12.70;86.20;;;15.58;59.61;100935.34;5034914;28;20650;-52
2023/01/05 02:46:27;;;;;;;7.63;2.00;;;12.80;86.20;;;15.59;59.67;100931.69;5033805;28;20524;-53
2023/01/05 02:48:59;;;;;;;3.27;1.40;;;12.80;86.10;;;15.57;59.38;100942.47;5034939;28;20226;-51
2023/01/05 02:51:33;;;;;;;3.43;1.50;;;12.70;86.00;;;15.59;59.39;100926.38;5035218;28;20269;-54
2023/01/05 02:54:08;;;;;;;2.63;1.07;;;12.80;86.20;;;15.58;59.35;100940.66;5035059;28;20185;-55
2023/01/05 02:56:42;;;;;;;2.10;1.00;;;12.80;86.20;;;15.58;59.43;100940.66;5030596;28;20663;-54
2023/01/05 02:59:16;;;;;;;3.23;1.50;;;12.80;86.40;;;15.56;59.53;100937.38;5017310;28;20218;-54
2023/01/05 03:01:48;;;;;;;3.63;1.73;;;12.80;86.30;;;15.56;59.45;100937.38;5020670;28;20209;-55
2023/01/05 03:04:22;;;;;;;4.57;2.13;;;12.80;86.30;;;15.55;59.61;100943.69;5014683;28;20623;-52
2023/01/05 03:06:55;;;;;;;4.53;1.70;;;12.80;86.30;;;15.55;59.37;100941.88;5014887;28;20602;-52
2023/01/05 03:09:27;;;;;;;4.67;1.73;;;12.80;86.40;;;15.56;59.79;100940.03;5014450;28;20290;-53
2023/01/05 03:14:52;;;;;;;5.00;1.80;;;12.80;86.30;;;15.53;59.53;100953.69;5018712;28;20278;-50
2023/01/05 03:17:28;;;;;;;7.03;2.93;;;12.70;86.30;;;15.51;59.67;100951.25;5013991;28;20195;-51
2023/01/05 03:19:59;;;;;;;6.40;2.37;;;12.70;86.30;;;15.50;59.54;100949.59;5014456;28;20211;-53
2023/01/05 03:36:54;;;;;;;8.97;2.20;;;12.70;86.00;;;15.46;59.80;100960.81;5034923;28;20198;-53
2023/01/05 03:39:25;;;;;;;6.97;2.00;;;12.70;86.00;;;15.48;59.38;100972.88;5034512;28;20210;-54
2023/01/05 03:41:53;;;;;;;8.47;2.97;;;12.80;85.90;;;15.52;59.54;100957.38;5036721;28;20238;-55
2023/01/05 03:44:20;;;;;;;9.20;2.33;;;12.70;85.70;;;15.52;59.04;100962.69;5043591;28;20186;-55
2023/01/05 03:46:47;;;;;;;4.97;2.50;;;12.70;85.30;;;15.53;59.17;100975.75;5033219;28;20203;-54
2023/01/05 03:49:16;;;;;;;5.97;2.47;;;12.70;85.30;;;15.56;58.77;100963.91;5040092;28;20214;-50
2023/01/05 03:51:44;;;;;;;8.90;2.73;;;12.70;85.10;;;15.57;58.73;100971.66;5029410;28;20342;-53
2023/01/05 03:54:11;;;;;;;7.33;2.70;;;12.80;85.30;;;15.59;58.80;100968.81;5044694;28;20304;-53
2023/01/05 03:56:38;;;;;;;7.73;2.57;;;12.80;85.20;;;15.62;58.83;100970.25;5045424;28;20222;-51
2023/01/05 03:59:05;;;;;;;10.07;2.67;;;12.80;85.00;;;15.65;58.26;100978.63;5040862;28;20602;-51
2023/01/05 04:01:32;;;;;;;7.67;2.83;;;12.80;84.90;;;15.66;58.45;100990.06;5035907;28;20264;-54
2023/01/05 04:03:59;;;;;;;8.87;2.77;;;12.80;84.30;;;15.63;58.29;100985.97;5014922;28;20724;-54
2023/01/05 04:06:26;;;;;;;7.90;2.57;;;12.80;84.40;;;15.63;58.30;100991.28;5015472;28;20226;-54
2023/01/05 04:08:54;;;;;;;9.90;3.67;;;12.90;84.60;;;15.65;58.50;100991.88;5034270;28;20210;-54
2023/01/05 04:11:23;;;;;;;9.23;3.20;;;12.80;84.50;;;15.64;58.45;100998.22;5034128;28;20198;-51
2023/01/05 04:13:50;;;;;;;12.93;3.00;;;12.90;84.60;;;15.65;58.28;100991.06;5033791;28;20211;-52
2023/01/05 04:16:17;;;;;;;8.83;2.57;;;12.80;84.40;;;15.65;58.08;101001.69;5034631;28;20191;-53
2023/01/05 04:18:44;;;;;;;8.10;2.83;;;12.80;84.10;;;15.64;58.07;101002.72;5035381;28;20220;-55
2023/01/05 04:21:11;;;;;;;8.97;3.17;;;12.80;84.20;;;15.64;57.92;101002.72;5036233;28;20194;-53
2023/01/05 04:23:38;;;;;;;9.83;2.70;;;12.80;84.20;;;15.63;58.04;101009.84;5035788;28;20199;-54
2023/01/05 04:26:07;;;;;;;13.23;2.97;;;12.80;84.40;;;15.63;58.56;101007.19;5034372;28;20199;-52
2023/01/05 04:28:34;;;;;;;7.47;2.47;;;12.80;84.40;;;15.62;58.32;101016.16;5026174;28;20203;-54
2023/01/05 04:31:00;;;;;;;7.63;2.63;;;12.80;84.40;;;15.62;58.44;101016.16;5015834;28;20191;-53
2023/01/05 04:33:27;;;;;;;10.90;3.10;;;12.80;84.60;;;15.60;58.32;101023.50;5015945;28;20253;-54
2023/01/05 04:35:54;;;;;;;8.87;2.70;;;12.80;84.20;;;15.58;58.32;101018.41;5014921;28;20210;-55
2023/01/05 04:38:21;;;;;;;9.80;3.30;;;12.80;84.40;;;15.59;58.11;101021.91;5014087;28;20209;-54
2023/01/05 04:40:49;;;;;;;8.47;2.50;;;12.80;84.30;;;15.60;57.89;101023.50;5014886;28;20223;-54
2023/01/05 04:43:18;;;;;;;12.73;3.27;;;12.80;84.30;;;15.60;58.13;101023.50;5032679;28;20708;-50
2023/01/05 04:45:47;;;;;;;6.03;2.30;;;12.80;84.10;;;15.60;57.96;101028.81;5038950;28;20208;-53
2023/01/05 04:48:15;;;;;;;10.07;2.70;;;12.80;84.10;;;15.62;57.95;101031.28;5038101;28;20194;-51
2023/01/05 04:50:42;;;;;;;8.90;2.43;;;12.80;83.90;;;15.61;58.12;101040.25;5038047;28;20221;-56
2023/01/05 04:53:10;;;;;;;9.03;2.90;;;12.80;84.10;;;15.64;58.05;101038.03;5032119;28;20223;-54
2023/01/05 04:55:38;;;;;;;8.63;2.70;;;12.80;84.00;;;15.63;57.71;101028.44;5017637;28;20202;-54
2023/01/05 04:58:04;;;;;;;6.20;2.30;;;12.80;84.10;;;15.64;57.99;101035.38;5017213;28;20214;-56
2023/01/05 05:00:39;;;;;;;7.37;2.73;;;12.80;84.20;;;15.64;57.71;101034.56;5029996;28;20686;-54
2023/01/05 05:03:06;;;;;;;8.63;2.87;;;12.80;84.10;;;15.63;58.40;101044.34;5036927;28;20594;-55
2023/01/05 05:05:33;;;;;;;6.57;2.27;;;12.90;84.30;;;15.62;57.99;101048.00;5037185;28;20191;-54
2023/01/05 05:08:00;;;;;;;9.53;2.77;;;12.80;84.20;;;15.62;58.03;101050.66;5036854;28;20199;-55
2023/01/05 05:10:27;;;;;;;11.00;2.70;;;12.80;84.30;;;15.59;58.15;101053.75;5036068;28;20703;-54
2023/01/05 05:12:54;;;;;;;7.53;2.93;;;12.80;84.50;;;15.58;58.17;101062.69;5036870;28;20206;-53
2023/01/05 05:15:21;;;;;;;7.83;2.70;;;12.80;84.40;;;15.56;58.35;101057.59;5036834;28;20190;-55
2023/01/05 05:17:49;;;;;;;10.20;3.03;;;12.80;84.50;;;15.56;58.24;101067.41;5036934;28;20190;-55
2023/01/05 05:20:17;;;;;;;9.37;2.43;;;12.70;84.40;;;15.56;58.43;101067.41;5036116;28;20591;-53
2023/01/05 05:22:43;;;;;;;6.77;2.60;;;12.80;84.50;;;15.59;58.23;101074.97;5036850;28;20193;-54
2023/01/05 05:25:11;;;;;;;5.53;2.17;;;12.70;84.70;;;15.56;58.34;101073.53;5020468;28;20567;-55
2023/01/05 05:27:38;;;;;;;4.93;2.10;;;12.70;84.70;;;15.55;58.57;101074.53;5032578;28;20714;-54
2023/01/05 05:30:07;;;;;;;8.50;2.70;;;12.70;84.70;;;15.53;58.44;101081.03;5016657;28;20215;-52
2023/01/05 05:32:34;;;;;;;8.47;2.70;;;12.70;84.70;;;15.54;58.14;101072.09;5017057;28;20486;-55
2023/01/05 05:35:10;;;;;;;6.73;2.40;;;12.70;84.70;;;15.54;58.43;101085.34;5017300;28;20522;-55
2023/01/05 05:37:37;;;;;;;12.77;3.27;;;12.70;84.80;;;15.53;58.44;101089.00;5019751;28;20204;-55
2023/01/05 05:40:05;;;;;;;10.17;3.07;;;12.70;84.60;;;15.50;58.44;101082.25;5035926;28;20289;-52
2023/01/05 05:42:32;;;;;;;9.70;3.13;;;12.70;84.70;;;15.50;58.44;101098.19;5036051;28;20194;-54
2023/01/05 05:45:00;;;;;;;10.07;2.90;;;12.70;84.70;;;15.51;58.61;101099.00;5035270;28;20194;-54
2023/01/05 05:47:27;;;;;;;9.17;3.13;;;12.70;84.70;;;15.51;58.33;101099.00;5035075;28;20201;-55
2023/01/05 05:49:54;;;;;;;12.50;3.00;;;12.70;84.80;;;15.51;58.21;101109.63;5026447;28;20676;-55
2023/01/05 05:52:22;;;;;;;8.40;2.83;;;12.70;84.60;;;15.51;58.51;101106.97;5016590;28;20275;-51
2023/01/05 05:54:49;;;;;;;8.90;2.93;;;12.70;84.60;;;15.52;58.34;101111.28;5016050;28;20688;-57
2023/01/05 05:57:16;;;;;;;10.50;3.70;;;12.70;84.70;;;15.51;58.42;101115.75;5016793;28;20198;-55
2023/01/05 05:59:43;;;;;;;8.80;3.17;;;12.70;84.40;;;15.50;58.09;101119.41;5023507;28;20731;-54
2023/01/05 06:02:10;;;;;;;8.77;2.97;;;12.70;84.30;;;15.49;58.01;101120.44;5036187;28;20194;-52
2023/01/05 06:04:37;;;;;;;11.30;2.43;;;12.70;84.20;;;15.50;58.19;101123.88;5016940;28;20188;-53
2023/01/05 06:07:04;;;;;;;8.07;3.37;;;12.70;84.20;;;15.50;58.12;101155.72;5017674;28;20195;-53
2023/01/05 06:09:32;;;;;;;9.07;2.87;;;12.70;84.20;;;15.50;57.75;101137.16;5035246;28;20211;-51
2023/01/05 06:11:59;;;;;;;8.47;3.13;;;12.70;84.30;;;15.50;58.29;101134.50;5035730;28;20187;-53
2023/01/05 06:14:26;;;;;;;9.17;3.30;;;12.70;84.40;;;15.50;57.99;101151.25;5035393;28;20225;-56
2023/01/05 06:16:53;;;;;;;13.83;3.83;;;12.70;84.20;;;15.50;57.95;101140.63;5035145;28;20222;-53
2023/01/05 06:19:20;;;;;;;9.00;3.23;;;12.70;84.10;;;15.49;57.90;101148.78;5034711;28;20671;-53
2023/01/05 06:21:47;;;;;;;7.83;3.10;;;12.60;84.30;;;15.45;58.07;101148.34;5035674;28;20674;-55
2023/01/05 06:24:14;;;;;;;13.97;3.30;;;12.70;84.50;;;15.46;58.19;101155.31;5035369;28;20190;-53
2023/01/05 06:26:44;;;;;;;12.03;3.30;;;12.70;84.50;;;15.47;58.10;101159.63;5035076;28;20190;-53
2023/01/05 06:29:11;;;;;;;10.10;4.07;;;12.70;84.60;;;15.49;58.49;101165.53;5035414;28;20288;-54
2023/01/05 06:31:38;;;;;;;11.13;3.80;;;12.70;84.70;;;15.50;58.44;101166.34;5035181;28;20186;-54
2023/01/05 06:34:05;;;;;;;10.73;3.90;;;12.60;84.90;;;15.49;58.64;101180.63;5025831;28;20658;-56
2023/01/05 06:36:32;;;;;;;12.73;3.83;;;12.70;85.30;;;15.46;58.68;101186.31;5015645;28;20187;-53
2023/01/05 06:38:59;;;;;;;11.60;3.70;;;12.70;85.60;;;15.44;58.89;101188.31;5015161;28;20237;-53
2023/01/05 06:41:26;;;;;;;13.83;4.67;;;12.60;85.70;;;15.41;58.86;101188.72;5015692;28;20253;-55
2023/01/05 06:43:54;;;;;;;10.37;3.43;;;12.60;85.80;;;15.39;59.02;101193.38;5015496;28;20191;-54
2023/01/05 06:46:21;;;;;;;7.93;2.87;;;12.60;85.90;;;15.36;59.32;101199.06;5026056;28;20202;-54
2023/01/05 06:48:50;;;;;;;7.97;2.73;;;12.60;85.90;;;15.33;59.39;101196.84;5028830;28;20241;-53
2023/01/05 06:51:17;;;;;;;10.23;3.10;;;12.60;86.10;;;15.31;59.41;101206.78;5034978;28;20663;-52
2023/01/05 06:53:44;;;;;;;10.00;2.90;;;12.50;86.20;;;15.31;59.22;101212.09;5034503;28;20236;-51
2023/01/05 06:56:11;;;;;;;13.47;3.23;;;12.50;86.30;;;15.29;59.54;101211.47;5034657;28;20248;-53
2023/01/05 06:58:38;;;;;;;10.37;3.10;;;12.50;86.20;;;15.28;59.63;101225.75;5034826;28;20253;-53
2023/01/05 07:01:06;;;;;;;10.67;3.17;;;12.50;86.40;;;15.25;59.58;101226.97;5033703;28;20205;-52
2023/01/05 07:03:33;;;;;;;11.67;3.43;;;12.50;86.50;;;15.25;59.47;101226.97;5034701;28;20183;-52
2023/01/05 07:06:00;;;;;;;6.83;3.13;;;12.40;86.40;;;15.25;59.86;101228.78;5034164;28;20286;-53
2023/01/05 07:08:27;;;;;;;10.60;2.90;;;12.40;86.50;;;15.23;59.66;101242.25;5034035;28;20202;-52
2023/01/05 07:10:54;;;;;;;9.93;3.00;;;12.40;86.50;;;15.24;59.81;101235.09;5034600;28;20194;-53
2023/01/05 07:13:21;;;;;;;13.27;3.67;;;12.40;86.50;;;15.25;59.90;101247.34;5033261;28;20689;-54
2023/01/05 07:15:48;;;;;;;11.70;3.03;;;12.40;86.40;;;15.27;59.38;101250.63;5033542;28;20197;-52
2023/01/05 07:18:16;;;;;;;9.80;3.53;;;12.40;86.40;;;15.27;59.78;101247.97;5033669;28;20245;-53
2023/01/05 07:20:43;;;;;;;9.40;3.17;;;12.50;86.40;;;15.27;59.53;101261.25;5034248;28;20225;-54
2023/01/05 07:23:09;;;;;;;11.50;3.17;;;12.40;86.20;;;15.26;59.16;101271.03;5034032;28;20300;-52
2023/01/05 07:25:36;;;;;;;7.40;2.43;;;12.40;86.10;;;15.27;59.28;101266.56;5034125;28;20186;-54
2023/01/05 07:28:04;;;;;;;5.43;2.90;;;12.40;85.80;;;15.28;59.02;101270.84;5034101;28;20198;-52
2023/01/05 07:30:31;;;;;;;13.00;2.87;;;12.50;86.00;;;15.31;59.01;101281.06;5033894;28;20229;-53
2023/01/05 07:32:59;;;;;;;6.97;2.37;;;12.40;85.90;;;15.31;59.20;101286.34;5034853;28;20194;-54
2023/01/05 07:35:27;;;;;;;8.97;2.83;;;12.40;85.80;;;15.29;58.82;101288.38;5034879;28;20202;-54
2023/01/05 07:37:55;;;;;;;8.57;3.03;;;12.40;86.60;;;15.27;58.94;101293.06;5032928;28;20202;-54
2023/01/05 07:40:22;;;;;;;9.63;3.30;;;12.40;85.70;;;15.23;58.94;101291.81;5032492;28;20225;-52
2023/01/05 07:42:50;;;;;;;8.33;3.27;;;12.40;85.80;;;15.22;59.15;101295.47;5033417;28;20198;-54
2023/01/05 07:45:18;;;;;;;11.90;2.90;;;12.40;85.70;;;15.16;59.29;101291.78;5034653;28;20193;-53
2023/01/05 07:47:45;;;;;;;8.93;3.23;;;12.40;85.40;;;15.10;58.85;101307.59;5037980;28;20221;-53
2023/01/05 07:50:15;;;;;;;6.50;2.77;;;12.40;85.10;;;15.02;58.94;101305.91;5035910;28;20221;-52
2023/01/05 07:52:44;;;;;;;8.53;2.60;;;12.30;84.40;;;14.96;59.00;101305.84;5034073;28;20617;-54
2023/01/05 07:55:11;;;;;;;5.83;2.40;;;12.20;85.10;;;14.91;59.12;101315.19;5034587;28;20218;-52
2023/01/05 07:57:39;;;;;;;5.83;2.30;;;12.20;84.20;;;14.88;58.72;101315.53;5034134;28;20235;-51
2023/01/05 08:00:09;;;;;;;6.40;2.70;;;12.20;84.00;;;14.85;58.38;101326.53;5035623;28;20238;-56
2023/01/05 08:02:36;;;;;;;6.60;2.27;;;12.20;83.80;;;14.83;58.33;101327.75;5035029;28;20187;-52
2023/01/05 08:05:03;;;;;;;9.50;2.77;;;12.10;83.40;;;14.79;58.34;101326.44;5035408;28;20651;-54
2023/01/05 08:07:30;;;;;;;8.13;2.57;;;12.10;83.50;;;14.77;58.38;101333.78;5034595;28;20225;-53
2023/01/05 08:15:30;;;;;;;8.20;2.77;;;12.00;83.70;;;14.68;58.61;101343.69;5033938;28;20235;-52
2023/01/05 08:17:57;;;;;;;9.17;2.70;;;12.00;83.70;;;14.67;58.14;101344.66;5034310;28;20671;-53
2023/01/05 08:20:24;;;;;;;8.27;2.90;;;11.90;83.30;;;14.64;58.25;101352.97;5033640;28;20214;-53
2023/01/05 08:22:52;;;;;;;6.20;2.30;;;11.90;83.30;;;14.63;58.36;101356.66;5034338;28;20248;-51
2023/01/05 08:25:21;;;;;;;7.87;2.50;;;11.90;83.30;;;14.61;58.18;101355.19;5025829;28;20191;-52
2023/01/05 08:27:48;;;;;;;4.93;1.70;;;11.90;83.40;;;14.57;57.94;101365.31;5013209;28;20206;-54
2023/01/05 08:30:15;;;;;;;5.10;1.47;;;11.80;82.80;;;14.56;57.82;101368.19;5013238;28;20573;-54
2023/01/05 08:32:42;;;;;;;5.50;2.07;;;11.80;82.80;;;14.52;57.73;101373.03;5013166;28;20219;-53
2023/01/05 08:35:09;;;;;;;4.67;2.20;;;11.80;82.70;;;14.51;57.60;101386.44;5013419;28;20222;-53
2023/01/05 08:37:36;;;;;;;5.43;1.60;;;11.80;82.50;;;14.46;57.77;101394.13;5014017;28;20199;-53
2023/01/05 08:40:05;;;;;;;2.63;1.43;;;11.70;82.20;;;14.43;57.59;101403.25;5019191;28;20223;-53
2023/01/05 08:42:33;;;;;;;5.20;1.83;;;11.70;82.20;;;14.40;57.37;101411.59;5022260;28;20209;-55
2023/01/05 08:45:00;;;;;;;3.87;2.13;;;11.70;82.10;;;14.38;57.53;101418.06;5031219;28;20197;-53
2023/01/05 08:47:27;;;;;;;3.03;1.27;;;11.60;81.80;;;14.35;57.52;101429.84;5031155;28;20623;-54
2023/01/05 08:49:54;;;;;;;3.90;1.77;;;11.60;81.70;;;14.33;57.38;101428.38;5030327;28;20210;-53
2023/01/05 08:52:22;;;;;;;4.30;1.47;;;11.60;81.90;;;14.31;57.32;101441.78;5022804;28;20298;-55
2023/01/05 08:54:49;;;;;;;3.87;1.63;;;11.60;82.00;;;14.29;57.25;101443.75;5010814;28;20215;-53
2023/01/05 08:57:16;;;;;;;4.07;1.13;;;11.60;82.00;;;14.28;57.09;101444.78;5010931;28;20191;-53
2023/01/05 08:59:44;;;;;;;4.23;1.13;;;11.50;81.60;;;14.28;57.24;101455.38;5019156;28;20218;-52
2023/01/05 09:02:11;;;;;;;4.13;1.13;;;11.50;81.60;;;14.27;57.31;101459.84;5033663;28;20195;-56
2023/01/05 09:04:39;;;;;;;3.47;1.50;;;11.50;81.70;;;14.26;57.18;101463.47;5028419;28;20810;-52
2023/01/05 09:07:06;;;;;;;3.60;1.27;;;11.50;81.50;;;14.25;56.96;101467.16;5027254;28;20202;-52
2023/01/05 09:09:33;;;;;;;4.23;1.60;;;11.50;81.60;;;14.24;57.00;101477.91;5018863;28;20231;-52
2023/01/05 09:12:00;;;;;;;3.70;1.40;;;11.50;81.70;;;14.23;57.05;101485.06;5029081;28;20695;-51
2023/01/05 09:14:26;;;;;;;3.17;1.47;;;11.50;81.60;;;14.24;56.97;101488.50;5033246;28;20205;-53
2023/01/05 09:16:55;;;;;;;9.10;1.97;;;11.50;81.80;;;14.26;57.05;101497.09;5033854;28;20199;-52
2023/01/05 09:19:37;;;;;;;3.13;1.87;;;11.50;81.80;;;14.25;57.16;101501.56;5032694;28;20206;-53
2023/01/05 09:22:04;;;;;;;5.63;1.70;;;11.50;81.70;;;14.32;56.86;101498.22;5022906;28;20199;-53
2023/01/05 09:24:31;;;;;;;2.83;1.40;;;11.50;81.70;;;14.39;56.87;101489.38;5013827;28;20225;-52
2023/01/05 09:26:58;;;;;;;5.13;2.40;;;11.50;81.60;;;14.44;56.98;101497.63;5014535;28;20286;-53
2023/01/05 09:29:25;;;;;;;3.27;1.40;;;11.50;81.80;;;14.50;57.09;101494.22;5014926;28;20216;-50
2023/01/05 09:31:52;;;;;;;8.10;2.17;;;11.60;82.00;;;14.51;56.70;101503.84;5022208;28;20211;-52
2023/01/05 09:34:20;;;;;;;3.53;2.10;;;11.60;81.50;;;14.53;56.71;101507.13;5023359;28;20215;-53
2023/01/05 09:36:47;;;;;;;4.60;2.00;;;11.70;81.40;;;14.54;56.36;101510.59;5021973;28;20523;-56
2023/01/05 09:39:14;;;;;;;5.23;1.97;;;11.70;81.20;;;14.54;56.51;101514.06;5025288;28;20211;-55
2023/01/05 09:41:46;;;;;;;16.10;9.00;;;11.70;81.10;;;14.52;56.00;101518.75;5023293;28;20205;-55
2023/01/05 09:44:27;;;;;;;7.07;2.60;;;11.60;80.50;;;14.49;56.25;101529.69;5023047;28;20218;-53
2023/01/05 09:47:00;;;;;;;5.60;2.20;;;11.70;80.70;;;14.48;56.10;101535.16;5024171;28;20643;-53
2023/01/05 09:49:32;;;;;;;9.30;2.57;;;11.70;80.60;;;14.49;56.14;101537.63;5034742;28;20215;-52
2023/01/05 09:52:08;;;;;;;5.10;1.77;;;11.70;80.70;;;14.48;55.88;101541.28;5037121;28;20256;-53
2023/01/05 09:54:37;;;;;;;7.97;3.33;;;11.70;80.30;;;14.49;56.00;101536.81;5020996;28;20276;-55
2023/01/05 09:57:14;;;;;;;4.00;1.70;;;11.60;80.40;;;14.48;56.24;101543.91;5015751;28;20317;-52
2023/01/05 09:59:45;;;;;;;5.20;2.27;;;11.70;80.50;;;14.51;56.12;101548.03;5024307;28;20575;-54
2023/01/05 10:02:30;;;;;;;8.80;2.37;;;11.70;80.40;;;14.51;55.97;101550.69;5034869;28;20555;-55
2023/01/05 10:05:01;;;;;;;5.73;2.30;;;11.70;80.30;;;14.56;55.94;101541.22;5034871;28;20178;-55
2023/01/05 10:07:42;;;;;;;6.80;2.27;;;11.70;80.30;;;14.56;55.69;101554.47;5035618;28;20195;-51
2023/01/05 10:10:26;;;;;;;5.23;2.13;;;11.80;81.10;;;14.60;55.52;101557.56;5034393;28;20205;-54
2023/01/05 10:13:02;;;;;;;9.10;2.67;;;11.80;80.20;;;14.68;55.81;101558.31;5026371;28;20272;-51
2023/01/05 10:15:37;;;;;;;4.47;2.63;;;11.80;80.10;;;14.90;55.57;101568.00;5035349;28;20280;-53
2023/01/05 10:18:14;;;;;;;10.53;2.93;;;11.80;80.20;;;15.34;55.43;101575.94;5034979;28;20198;-52
2023/01/05 10:20:55;;;;;;;10.43;2.83;;;12.00;80.90;;;15.79;54.82;101569.56;5035326;28;20212;-53
2023/01/05 10:23:47;;;;;;;8.03;2.10;;;12.30;81.20;;;16.17;53.41;101573.63;5035542;28;20183;-54
2023/01/05 10:26:23;;;;;;;5.87;2.37;;;12.60;79.70;;;16.44;52.81;101580.00;5032625;28;20190;-54
2023/01/05 10:29:01;;;;;;;12.87;3.30;;;12.80;79.10;;;16.46;52.63;101582.47;5034396;28;20667;-53
2023/01/05 10:31:44;;;;;;;7.80;2.07;;;13.00;77.90;;;16.35;51.92;101588.31;5034274;28;20222;-52
2023/01/05 10:34:21;;;;;;;6.10;1.80;;;13.10;76.60;;;16.18;51.41;101588.56;5035360;28;20191;-54
2023/01/05 10:37:25;;;;;;;6.60;2.30;;;13.00;75.50;;;15.94;51.62;101588.09;5032075;28;20197;-57
2023/01/05 10:40:13;;;;;;;5.07;1.50;;;13.00;75.40;;;15.76;52.00;101585.88;5029361;28;20226;-54
2023/01/05 10:42:57;;;;;;;9.23;2.13;;;12.90;75.50;;;15.65;52.64;101589.00;5032217;28;20225;-55
2023/01/05 10:45:29;;;;;;;4.90;2.00;;;12.90;75.90;;;15.57;52.47;101594.41;5027713;28;20207;-53
2023/01/05 10:47:58;;;;;;;7.60;1.60;;;12.80;76.10;;;15.51;52.53;101592.53;5028203;28;20760;-55
2023/01/05 10:50:35;;;;;;;7.40;1.67;;;12.70;76.10;;;15.45;53.02;101599.38;5034428;28;20210;-53
2023/01/05 10:53:10;;;;;;;6.83;1.80;;;12.70;76.60;;;15.39;52.87;101607.22;5031950;28;20197;-53
2023/01/05 10:55:48;;;;;;;6.50;1.80;;;12.60;76.50;;;15.35;52.94;101621.88;5034890;28;20687;-54
2023/01/05 10:58:25;;;;;;;8.23;2.00;;;12.60;76.80;;;15.31;53.09;101617.94;5033030;28;20202;-54